sensor_id;sensor_type;location;lat;lon;timestamp;P1;durP1;ratioP1;P2;durP2;ratioP2
68386;SDS011;55338;43.062;25.624;2022-08-30T00:00:17;13.48;;;9.10;;
68386;SDS011;55338;43.062;25.624;2022-08-30T00:03:02;15.30;;;9.13;;
68386;SDS011;55338;43.062;25.624;2022-08-30T00:05:30;15.40;;;8.53;;
68386;SDS011;55338;43.062;25.624;2022-08-30T00:07:57;16.48;;;8.35;;
68386;SDS011;55338;43.062;25.624;2022-08-30T00:10:23;18.60;;;9.65;;
68386;SDS011;55338;43.062;25.624;2022-08-30T00:12:49;17.67;;;10.63;;
68386;SDS011;55338;43.062;25.624;2022-08-30T00:15:15;18.45;;;9.85;;
68386;SDS011;55338;43.062;25.624;2022-08-30T00:17:42;17.27;;;9.52;;
68386;SDS011;55338;43.062;25.624;2022-08-30T00:20:09;22.23;;;11.07;;
68386;SDS011;55338;43.062;25.624;2022-08-30T00:22:38;16.52;;;9.57;;
68386;SDS011;55338;43.062;25.624;2022-08-30T00:25:04;13.60;;;9.30;;
68386;SDS011;55338;43.062;25.624;2022-08-30T00:27:31;14.15;;;9.20;;
68386;SDS011;55338;43.062;25.624;2022-08-30T00:29:57;20.63;;;8.43;;
68386;SDS011;55338;43.062;25.624;2022-08-30T00:32:23;15.75;;;9.30;;
68386;SDS011;55338;43.062;25.624;2022-08-30T00:34:50;15.10;;;9.67;;
68386;SDS011;55338;43.062;25.624;2022-08-30T00:37:17;13.50;;;9.02;;
68386;SDS011;55338;43.062;25.624;2022-08-30T00:39:43;14.68;;;9.13;;
68386;SDS011;55338;43.062;25.624;2022-08-30T00:42:10;15.00;;;9.30;;
68386;SDS011;55338;43.062;25.624;2022-08-30T00:44:38;16.52;;;9.52;;
68386;SDS011;55338;43.062;25.624;2022-08-30T00:47:04;13.70;;;9.90;;
68386;SDS011;55338;43.062;25.624;2022-08-30T00:49:30;17.40;;;9.85;;
68386;SDS011;55338;43.062;25.624;2022-08-30T00:51:59;16.77;;;9.55;;
68386;SDS011;55338;43.062;25.624;2022-08-30T00:54:26;15.75;;;9.82;;
68386;SDS011;55338;43.062;25.624;2022-08-30T00:56:53;13.70;;;9.63;;
68386;SDS011;55338;43.062;25.624;2022-08-30T00:59:19;14.67;;;9.27;;
68386;SDS011;55338;43.062;25.624;2022-08-30T01:01:48;16.67;;;10.10;;
68386;SDS011;55338;43.062;25.624;2022-08-30T01:04:15;18.52;;;10.43;;
68386;SDS011;55338;43.062;25.624;2022-08-30T01:06:45;20.50;;;9.63;;
68386;SDS011;55338;43.062;25.624;2022-08-30T01:09:10;16.97;;;10.00;;
68386;SDS011;55338;43.062;25.624;2022-08-30T01:11:37;17.13;;;9.73;;
68386;SDS011;55338;43.062;25.624;2022-08-30T01:14:06;16.80;;;9.70;;
68386;SDS011;55338;43.062;25.624;2022-08-30T01:16:33;17.10;;;10.20;;
68386;SDS011;55338;43.062;25.624;2022-08-30T01:19:00;15.90;;;9.48;;
68386;SDS011;55338;43.062;25.624;2022-08-30T01:21:38;16.70;;;10.87;;
68386;SDS011;55338;43.062;25.624;2022-08-30T01:24:18;20.42;;;9.95;;
68386;SDS011;55338;43.062;25.624;2022-08-30T01:26:45;19.08;;;10.45;;
68386;SDS011;55338;43.062;25.624;2022-08-30T01:29:13;19.93;;;10.87;;
68386;SDS011;55338;43.062;25.624;2022-08-30T01:31:43;16.23;;;9.55;;
68386;SDS011;55338;43.062;25.624;2022-08-30T01:34:10;15.68;;;9.00;;
68386;SDS011;55338;43.062;25.624;2022-08-30T01:36:36;16.75;;;10.18;;
68386;SDS011;55338;43.062;25.624;2022-08-30T01:39:06;13.13;;;9.25;;
68386;SDS011;55338;43.062;25.624;2022-08-30T01:41:34;19.07;;;10.03;;
68386;SDS011;55338;43.062;25.624;2022-08-30T01:44:02;18.23;;;10.07;;
68386;SDS011;55338;43.062;25.624;2022-08-30T01:46:34;17.52;;;9.52;;
68386;SDS011;55338;43.062;25.624;2022-08-30T01:49:07;16.15;;;9.15;;
68386;SDS011;55338;43.062;25.624;2022-08-30T01:51:35;21.45;;;9.88;;
68386;SDS011;55338;43.062;25.624;2022-08-30T01:54:02;16.57;;;9.50;;
68386;SDS011;55338;43.062;25.624;2022-08-30T01:56:28;15.05;;;9.27;;
68386;SDS011;55338;43.062;25.624;2022-08-30T01:58:54;16.75;;;9.57;;
68386;SDS011;55338;43.062;25.624;2022-08-30T02:01:22;14.25;;;9.88;;
68386;SDS011;55338;43.062;25.624;2022-08-30T02:03:49;17.60;;;9.95;;
68386;SDS011;55338;43.062;25.624;2022-08-30T02:06:18;15.50;;;9.53;;
68386;SDS011;55338;43.062;25.624;2022-08-30T02:08:44;16.35;;;10.40;;
68386;SDS011;55338;43.062;25.624;2022-08-30T02:11:11;14.32;;;9.23;;
68386;SDS011;55338;43.062;25.624;2022-08-30T02:13:38;19.98;;;9.40;;
68386;SDS011;55338;43.062;25.624;2022-08-30T02:16:06;13.38;;;9.52;;
68386;SDS011;55338;43.062;25.624;2022-08-30T02:18:34;12.87;;;9.03;;
68386;SDS011;55338;43.062;25.624;2022-08-30T02:21:01;15.70;;;9.80;;
68386;SDS011;55338;43.062;25.624;2022-08-30T02:23:27;17.15;;;10.30;;
68386;SDS011;55338;43.062;25.624;2022-08-30T02:25:53;16.92;;;9.52;;
68386;SDS011;55338;43.062;25.624;2022-08-30T02:28:18;17.60;;;9.83;;
68386;SDS011;55338;43.062;25.624;2022-08-30T02:30:45;16.10;;;10.00;;
68386;SDS011;55338;43.062;25.624;2022-08-30T02:33:11;18.27;;;9.55;;
68386;SDS011;55338;43.062;25.624;2022-08-30T02:35:38;17.77;;;10.33;;
68386;SDS011;55338;43.062;25.624;2022-08-30T02:38:04;17.48;;;9.38;;
68386;SDS011;55338;43.062;25.624;2022-08-30T02:40:30;14.90;;;9.45;;
68386;SDS011;55338;43.062;25.624;2022-08-30T02:42:55;14.17;;;10.20;;
68386;SDS011;55338;43.062;25.624;2022-08-30T02:45:22;14.18;;;9.95;;
68386;SDS011;55338;43.062;25.624;2022-08-30T02:47:48;15.40;;;10.02;;
68386;SDS011;55338;43.062;25.624;2022-08-30T02:50:14;20.07;;;9.67;;
68386;SDS011;55338;43.062;25.624;2022-08-30T02:52:41;25.17;;;10.85;;
68386;SDS011;55338;43.062;25.624;2022-08-30T02:55:06;13.90;;;9.63;;
68386;SDS011;55338;43.062;25.624;2022-08-30T02:57:33;20.50;;;10.27;;
68386;SDS011;55338;43.062;25.624;2022-08-30T02:59:59;19.05;;;10.65;;
68386;SDS011;55338;43.062;25.624;2022-08-30T03:02:26;15.37;;;9.30;;
68386;SDS011;55338;43.062;25.624;2022-08-30T03:04:52;14.93;;;9.05;;
68386;SDS011;55338;43.062;25.624;2022-08-30T03:07:17;22.25;;;9.80;;
68386;SDS011;55338;43.062;25.624;2022-08-30T03:09:43;14.20;;;9.40;;
68386;SDS011;55338;43.062;25.624;2022-08-30T03:12:10;18.83;;;10.35;;
68386;SDS011;55338;43.062;25.624;2022-08-30T03:14:37;18.92;;;9.80;;
68386;SDS011;55338;43.062;25.624;2022-08-30T03:17:03;18.30;;;9.10;;
68386;SDS011;55338;43.062;25.624;2022-08-30T03:19:31;21.75;;;9.63;;
68386;SDS011;55338;43.062;25.624;2022-08-30T03:21:58;22.00;;;10.17;;
68386;SDS011;55338;43.062;25.624;2022-08-30T03:24:23;19.50;;;9.77;;
68386;SDS011;55338;43.062;25.624;2022-08-30T03:26:50;23.75;;;10.20;;
68386;SDS011;55338;43.062;25.624;2022-08-30T03:29:16;27.70;;;9.85;;
68386;SDS011;55338;43.062;25.624;2022-08-30T03:31:42;18.13;;;10.30;;
68386;SDS011;55338;43.062;25.624;2022-08-30T03:34:08;16.42;;;9.30;;
68386;SDS011;55338;43.062;25.624;2022-08-30T03:36:35;18.73;;;9.30;;
68386;SDS011;55338;43.062;25.624;2022-08-30T03:39:03;15.25;;;9.32;;
68386;SDS011;55338;43.062;25.624;2022-08-30T03:41:30;14.23;;;9.95;;
68386;SDS011;55338;43.062;25.624;2022-08-30T03:43:56;18.98;;;9.63;;
68386;SDS011;55338;43.062;25.624;2022-08-30T03:46:23;22.90;;;9.98;;
68386;SDS011;55338;43.062;25.624;2022-08-30T03:48:49;17.13;;;9.47;;
68386;SDS011;55338;43.062;25.624;2022-08-30T03:51:16;19.25;;;9.77;;
68386;SDS011;55338;43.062;25.624;2022-08-30T03:53:42;13.85;;;9.40;;
68386;SDS011;55338;43.062;25.624;2022-08-30T03:56:08;24.30;;;9.98;;
68386;SDS011;55338;43.062;25.624;2022-08-30T03:58:35;19.03;;;9.47;;
68386;SDS011;55338;43.062;25.624;2022-08-30T04:01:01;15.35;;;9.38;;
68386;SDS011;55338;43.062;25.624;2022-08-30T04:03:26;23.08;;;10.05;;
68386;SDS011;55338;43.062;25.624;2022-08-30T04:05:53;19.10;;;9.25;;
68386;SDS011;55338;43.062;25.624;2022-08-30T04:08:20;19.10;;;9.70;;
68386;SDS011;55338;43.062;25.624;2022-08-30T04:10:46;16.60;;;10.05;;
68386;SDS011;55338;43.062;25.624;2022-08-30T04:13:13;18.52;;;10.23;;
68386;SDS011;55338;43.062;25.624;2022-08-30T04:15:39;23.45;;;10.23;;
68386;SDS011;55338;43.062;25.624;2022-08-30T04:18:06;17.80;;;9.83;;
68386;SDS011;55338;43.062;25.624;2022-08-30T04:20:32;19.92;;;10.32;;
68386;SDS011;55338;43.062;25.624;2022-08-30T04:22:58;15.88;;;9.65;;
68386;SDS011;55338;43.062;25.624;2022-08-30T04:25:24;21.90;;;10.23;;
68386;SDS011;55338;43.062;25.624;2022-08-30T04:27:50;18.48;;;9.13;;
68386;SDS011;55338;43.062;25.624;2022-08-30T04:30:16;29.73;;;10.07;;
68386;SDS011;55338;43.062;25.624;2022-08-30T04:32:43;25.23;;;11.13;;
68386;SDS011;55338;43.062;25.624;2022-08-30T04:35:09;19.50;;;10.27;;
68386;SDS011;55338;43.062;25.624;2022-08-30T04:37:36;25.08;;;10.57;;
68386;SDS011;55338;43.062;25.624;2022-08-30T04:40:03;24.67;;;10.52;;
68386;SDS011;55338;43.062;25.624;2022-08-30T04:42:31;21.77;;;12.20;;
68386;SDS011;55338;43.062;25.624;2022-08-30T04:44:58;18.52;;;10.15;;
68386;SDS011;55338;43.062;25.624;2022-08-30T04:47:26;28.88;;;11.25;;
68386;SDS011;55338;43.062;25.624;2022-08-30T04:49:52;43.60;;;11.73;;
68386;SDS011;55338;43.062;25.624;2022-08-30T04:52:18;19.40;;;9.77;;
68386;SDS011;55338;43.062;25.624;2022-08-30T04:54:44;25.23;;;10.80;;
68386;SDS011;55338;43.062;25.624;2022-08-30T04:57:10;37.43;;;11.97;;
68386;SDS011;55338;43.062;25.624;2022-08-30T04:59:36;43.85;;;12.13;;
68386;SDS011;55338;43.062;25.624;2022-08-30T05:02:03;30.75;;;11.27;;
68386;SDS011;55338;43.062;25.624;2022-08-30T05:04:29;29.00;;;11.65;;
68386;SDS011;55338;43.062;25.624;2022-08-30T05:06:55;35.87;;;11.27;;
68386;SDS011;55338;43.062;25.624;2022-08-30T05:09:20;28.27;;;11.30;;
68386;SDS011;55338;43.062;25.624;2022-08-30T05:11:46;21.13;;;12.27;;
68386;SDS011;55338;43.062;25.624;2022-08-30T05:14:12;31.27;;;11.80;;
68386;SDS011;55338;43.062;25.624;2022-08-30T05:16:38;34.58;;;12.30;;
68386;SDS011;55338;43.062;25.624;2022-08-30T05:19:05;27.77;;;12.00;;
68386;SDS011;55338;43.062;25.624;2022-08-30T05:21:32;29.52;;;12.77;;
68386;SDS011;55338;43.062;25.624;2022-08-30T05:23:58;37.83;;;14.33;;
68386;SDS011;55338;43.062;25.624;2022-08-30T05:26:29;32.17;;;14.13;;
68386;SDS011;55338;43.062;25.624;2022-08-30T05:28:57;25.45;;;12.20;;
68386;SDS011;55338;43.062;25.624;2022-08-30T05:31:27;24.98;;;13.50;;
68386;SDS011;55338;43.062;25.624;2022-08-30T05:33:54;21.42;;;12.43;;
68386;SDS011;55338;43.062;25.624;2022-08-30T05:36:21;24.97;;;12.20;;
68386;SDS011;55338;43.062;25.624;2022-08-30T05:38:48;24.98;;;12.93;;
68386;SDS011;55338;43.062;25.624;2022-08-30T05:41:14;21.95;;;12.25;;
68386;SDS011;55338;43.062;25.624;2022-08-30T05:43:42;22.58;;;12.02;;
68386;SDS011;55338;43.062;25.624;2022-08-30T05:46:10;28.00;;;13.25;;
68386;SDS011;55338;43.062;25.624;2022-08-30T05:48:39;18.20;;;11.20;;
68386;SDS011;55338;43.062;25.624;2022-08-30T05:51:09;23.70;;;11.90;;
68386;SDS011;55338;43.062;25.624;2022-08-30T05:53:37;31.02;;;12.18;;
68386;SDS011;55338;43.062;25.624;2022-08-30T05:56:05;32.72;;;12.60;;
68386;SDS011;55338;43.062;25.624;2022-08-30T05:58:32;22.00;;;13.03;;
68386;SDS011;55338;43.062;25.624;2022-08-30T06:00:59;23.52;;;12.02;;
68386;SDS011;55338;43.062;25.624;2022-08-30T06:03:25;24.02;;;11.43;;
68386;SDS011;55338;43.062;25.624;2022-08-30T06:05:52;21.45;;;12.50;;
68386;SDS011;55338;43.062;25.624;2022-08-30T06:08:17;21.27;;;10.57;;
68386;SDS011;55338;43.062;25.624;2022-08-30T06:10:43;16.80;;;10.50;;
68386;SDS011;55338;43.062;25.624;2022-08-30T06:13:09;18.58;;;10.45;;
68386;SDS011;55338;43.062;25.624;2022-08-30T06:15:35;23.63;;;11.97;;
68386;SDS011;55338;43.062;25.624;2022-08-30T06:18:01;30.17;;;15.45;;
68386;SDS011;55338;43.062;25.624;2022-08-30T06:20:28;47.83;;;21.52;;
68386;SDS011;55338;43.062;25.624;2022-08-30T06:22:53;39.22;;;17.00;;
68386;SDS011;55338;43.062;25.624;2022-08-30T06:25:19;39.90;;;14.67;;
68386;SDS011;55338;43.062;25.624;2022-08-30T06:27:45;20.50;;;10.85;;
68386;SDS011;55338;43.062;25.624;2022-08-30T06:30:11;20.60;;;11.10;;
68386;SDS011;55338;43.062;25.624;2022-08-30T06:32:37;19.30;;;10.98;;
68386;SDS011;55338;43.062;25.624;2022-08-30T06:35:04;17.70;;;8.70;;
68386;SDS011;55338;43.062;25.624;2022-08-30T06:37:32;15.20;;;8.10;;
68386;SDS011;55338;43.062;25.624;2022-08-30T06:39:58;13.40;;;7.33;;
68386;SDS011;55338;43.062;25.624;2022-08-30T06:42:25;13.02;;;7.55;;
68386;SDS011;55338;43.062;25.624;2022-08-30T06:45:02;12.65;;;6.85;;
68386;SDS011;55338;43.062;25.624;2022-08-30T06:47:29;12.98;;;7.40;;
68386;SDS011;55338;43.062;25.624;2022-08-30T06:49:55;13.47;;;8.20;;
68386;SDS011;55338;43.062;25.624;2022-08-30T06:52:22;11.75;;;8.23;;
68386;SDS011;55338;43.062;25.624;2022-08-30T06:54:48;14.20;;;9.30;;
68386;SDS011;55338;43.062;25.624;2022-08-30T06:57:14;14.07;;;7.00;;
68386;SDS011;55338;43.062;25.624;2022-08-30T06:59:40;11.37;;;7.13;;
68386;SDS011;55338;43.062;25.624;2022-08-30T07:02:06;10.50;;;6.80;;
68386;SDS011;55338;43.062;25.624;2022-08-30T07:04:32;10.93;;;6.07;;
68386;SDS011;55338;43.062;25.624;2022-08-30T07:06:58;11.73;;;5.75;;
68386;SDS011;55338;43.062;25.624;2022-08-30T07:09:24;9.13;;;6.90;;
68386;SDS011;55338;43.062;25.624;2022-08-30T07:11:50;12.95;;;7.00;;
68386;SDS011;55338;43.062;25.624;2022-08-30T07:14:17;15.07;;;6.72;;
68386;SDS011;55338;43.062;25.624;2022-08-30T07:16:44;17.40;;;6.50;;
68386;SDS011;55338;43.062;25.624;2022-08-30T07:19:10;10.93;;;6.63;;
68386;SDS011;55338;43.062;25.624;2022-08-30T07:21:37;8.98;;;6.85;;
68386;SDS011;55338;43.062;25.624;2022-08-30T07:24:08;12.25;;;7.18;;
68386;SDS011;55338;43.062;25.624;2022-08-30T07:26:36;10.17;;;6.50;;
68386;SDS011;55338;43.062;25.624;2022-08-30T07:29:05;9.68;;;6.78;;
68386;SDS011;55338;43.062;25.624;2022-08-30T07:31:32;13.27;;;7.28;;
68386;SDS011;55338;43.062;25.624;2022-08-30T07:34:00;15.27;;;6.82;;
68386;SDS011;55338;43.062;25.624;2022-08-30T07:36:26;12.35;;;6.82;;
68386;SDS011;55338;43.062;25.624;2022-08-30T07:38:52;13.30;;;7.60;;
68386;SDS011;55338;43.062;25.624;2022-08-30T07:41:20;13.55;;;7.13;;
68386;SDS011;55338;43.062;25.624;2022-08-30T07:43:50;10.90;;;6.40;;
68386;SDS011;55338;43.062;25.624;2022-08-30T07:46:16;8.15;;;6.53;;
68386;SDS011;55338;43.062;25.624;2022-08-30T07:48:43;14.10;;;6.53;;
68386;SDS011;55338;43.062;25.624;2022-08-30T07:51:13;23.80;;;7.60;;
68386;SDS011;55338;43.062;25.624;2022-08-30T07:53:41;12.35;;;6.72;;
68386;SDS011;55338;43.062;25.624;2022-08-30T07:56:07;10.77;;;6.22;;
68386;SDS011;55338;43.062;25.624;2022-08-30T07:58:33;13.13;;;6.13;;
68386;SDS011;55338;43.062;25.624;2022-08-30T08:01:01;14.50;;;6.18;;
68386;SDS011;55338;43.062;25.624;2022-08-30T08:03:31;11.15;;;6.32;;
68386;SDS011;55338;43.062;25.624;2022-08-30T08:05:59;8.80;;;6.43;;
68386;SDS011;55338;43.062;25.624;2022-08-30T08:08:27;10.50;;;6.93;;
68386;SDS011;55338;43.062;25.624;2022-08-30T08:10:52;10.90;;;6.10;;
68386;SDS011;55338;43.062;25.624;2022-08-30T08:13:18;22.20;;;7.22;;
68386;SDS011;55338;43.062;25.624;2022-08-30T08:15:44;10.33;;;6.17;;
68386;SDS011;55338;43.062;25.624;2022-08-30T08:18:10;15.30;;;6.60;;
68386;SDS011;55338;43.062;25.624;2022-08-30T08:20:36;13.10;;;7.15;;
68386;SDS011;55338;43.062;25.624;2022-08-30T08:23:02;8.27;;;6.35;;
68386;SDS011;55338;43.062;25.624;2022-08-30T08:25:28;11.07;;;7.40;;
68386;SDS011;55338;43.062;25.624;2022-08-30T08:27:55;11.07;;;6.57;;
68386;SDS011;55338;43.062;25.624;2022-08-30T08:30:21;10.95;;;6.40;;
68386;SDS011;55338;43.062;25.624;2022-08-30T08:32:48;14.23;;;6.50;;
68386;SDS011;55338;43.062;25.624;2022-08-30T08:35:15;12.52;;;6.15;;
68386;SDS011;55338;43.062;25.624;2022-08-30T08:37:41;11.67;;;6.57;;
68386;SDS011;55338;43.062;25.624;2022-08-30T08:40:08;12.10;;;6.38;;
68386;SDS011;55338;43.062;25.624;2022-08-30T08:50:47;9.63;;;5.70;;
68386;SDS011;55338;43.062;25.624;2022-08-30T08:53:43;8.00;;;5.93;;
68386;SDS011;55338;43.062;25.624;2022-08-30T08:56:15;11.20;;;5.78;;
68386;SDS011;55338;43.062;25.624;2022-08-30T08:58:50;9.55;;;5.90;;
68386;SDS011;55338;43.062;25.624;2022-08-30T09:01:20;11.80;;;5.90;;
68386;SDS011;55338;43.062;25.624;2022-08-30T09:03:47;8.33;;;6.27;;
68386;SDS011;55338;43.062;25.624;2022-08-30T09:09:18;7.15;;;5.72;;
68386;SDS011;55338;43.062;25.624;2022-08-30T09:11:47;7.80;;;6.90;;
68386;SDS011;55338;43.062;25.624;2022-08-30T09:14:15;7.75;;;5.60;;
68386;SDS011;55338;43.062;25.624;2022-08-30T09:16:56;11.17;;;6.30;;
68386;SDS011;55338;43.062;25.624;2022-08-30T09:19:28;8.10;;;6.10;;
68386;SDS011;55338;43.062;25.624;2022-08-30T09:22:17;7.65;;;5.50;;
68386;SDS011;55338;43.062;25.624;2022-08-30T09:27:33;20.50;;;7.18;;
68386;SDS011;55338;43.062;25.624;2022-08-30T09:30:08;13.57;;;5.90;;
68386;SDS011;55338;43.062;25.624;2022-08-30T09:32:40;8.77;;;6.50;;
68386;SDS011;55338;43.062;25.624;2022-08-30T09:35:12;8.43;;;6.00;;
68386;SDS011;55338;43.062;25.624;2022-08-30T09:37:51;9.48;;;6.55;;
68386;SDS011;55338;43.062;25.624;2022-08-30T09:40:25;9.82;;;6.55;;
68386;SDS011;55338;43.062;25.624;2022-08-30T09:45:42;9.00;;;6.07;;
68386;SDS011;55338;43.062;25.624;2022-08-30T09:48:21;10.48;;;6.50;;
68386;SDS011;55338;43.062;25.624;2022-08-30T09:50:56;8.95;;;6.30;;
68386;SDS011;55338;43.062;25.624;2022-08-30T09:53:31;7.70;;;5.93;;
68386;SDS011;55338;43.062;25.624;2022-08-30T09:56:09;9.52;;;6.45;;
68386;SDS011;55338;43.062;25.624;2022-08-30T10:01:21;12.60;;;7.38;;
68386;SDS011;55338;43.062;25.624;2022-08-30T10:06:30;9.07;;;6.28;;
68386;SDS011;55338;43.062;25.624;2022-08-30T10:14:15;10.32;;;6.72;;
68386;SDS011;55338;43.062;25.624;2022-08-30T10:19:46;10.57;;;6.82;;
68386;SDS011;55338;43.062;25.624;2022-08-30T10:22:38;11.60;;;6.57;;
68386;SDS011;55338;43.062;25.624;2022-08-30T10:30:47;7.78;;;6.78;;
68386;SDS011;55338;43.062;25.624;2022-08-30T10:33:22;10.48;;;6.60;;
68386;SDS011;55338;43.062;25.624;2022-08-30T10:35:53;7.43;;;6.10;;
68386;SDS011;55338;43.062;25.624;2022-08-30T10:38:26;8.10;;;6.53;;
68386;SDS011;55338;43.062;25.624;2022-08-30T10:41:06;9.98;;;6.32;;
68386;SDS011;55338;43.062;25.624;2022-08-30T10:49:04;8.43;;;6.70;;
68386;SDS011;55338;43.062;25.624;2022-08-30T10:51:57;8.35;;;6.03;;
68386;SDS011;55338;43.062;25.624;2022-08-30T10:57:17;8.73;;;5.93;;
68386;SDS011;55338;43.062;25.624;2022-08-30T10:59:45;10.93;;;7.15;;
68386;SDS011;55338;43.062;25.624;2022-08-30T11:05:22;11.45;;;6.10;;
68386;SDS011;55338;43.062;25.624;2022-08-30T11:13:27;10.20;;;6.70;;
68386;SDS011;55338;43.062;25.624;2022-08-30T11:15:58;9.00;;;6.80;;
68386;SDS011;55338;43.062;25.624;2022-08-30T11:18:30;11.40;;;6.30;;
68386;SDS011;55338;43.062;25.624;2022-08-30T11:29:26;10.00;;;6.53;;
68386;SDS011;55338;43.062;25.624;2022-08-30T11:32:20;12.57;;;6.88;;
68386;SDS011;55338;43.062;25.624;2022-08-30T11:34:52;11.00;;;6.07;;
68386;SDS011;55338;43.062;25.624;2022-08-30T11:37:39;12.65;;;6.50;;
68386;SDS011;55338;43.062;25.624;2022-08-30T11:47:48;15.73;;;6.72;;
68386;SDS011;55338;43.062;25.624;2022-08-30T11:52:53;13.83;;;6.80;;
68386;SDS011;55338;43.062;25.624;2022-08-30T12:01:12;11.20;;;6.22;;
68386;SDS011;55338;43.062;25.624;2022-08-30T12:03:38;8.45;;;6.30;;
68386;SDS011;55338;43.062;25.624;2022-08-30T12:06:05;9.03;;;5.90;;
68386;SDS011;55338;43.062;25.624;2022-08-30T12:11:02;11.55;;;6.05;;
68386;SDS011;55338;43.062;25.624;2022-08-30T12:16:05;10.37;;;6.10;;
68386;SDS011;55338;43.062;25.624;2022-08-30T12:18:46;8.57;;;6.07;;
68386;SDS011;55338;43.062;25.624;2022-08-30T12:21:37;9.05;;;5.55;;
68386;SDS011;55338;43.062;25.624;2022-08-30T12:26:46;11.38;;;5.93;;
68386;SDS011;55338;43.062;25.624;2022-08-30T12:29:17;9.27;;;5.33;;
68386;SDS011;55338;43.062;25.624;2022-08-30T12:31:52;10.25;;;6.05;;
68386;SDS011;55338;43.062;25.624;2022-08-30T12:34:28;9.93;;;6.40;;
68386;SDS011;55338;43.062;25.624;2022-08-30T12:39:33;9.55;;;6.28;;
68386;SDS011;55338;43.062;25.624;2022-08-30T12:44:42;10.20;;;7.10;;
68386;SDS011;55338;43.062;25.624;2022-08-30T12:47:09;11.13;;;6.72;;
68386;SDS011;55338;43.062;25.624;2022-08-30T12:49:37;8.73;;;6.10;;
68386;SDS011;55338;43.062;25.624;2022-08-30T12:55:06;8.47;;;5.80;;
68386;SDS011;55338;43.062;25.624;2022-08-30T12:57:42;9.20;;;6.60;;
68386;SDS011;55338;43.062;25.624;2022-08-30T13:00:24;10.88;;;6.30;;
68386;SDS011;55338;43.062;25.624;2022-08-30T13:02:53;8.85;;;6.60;;
68386;SDS011;55338;43.062;25.624;2022-08-30T13:08:18;8.80;;;5.70;;
68386;SDS011;55338;43.062;25.624;2022-08-30T13:13:25;17.48;;;6.70;;
68386;SDS011;55338;43.062;25.624;2022-08-30T13:18:42;10.50;;;7.68;;
68386;SDS011;55338;43.062;25.624;2022-08-30T13:21:21;9.00;;;6.60;;
68386;SDS011;55338;43.062;25.624;2022-08-30T13:23:59;16.25;;;7.55;;
68386;SDS011;55338;43.062;25.624;2022-08-30T13:26:27;12.90;;;7.45;;
68386;SDS011;55338;43.062;25.624;2022-08-30T13:28:57;15.05;;;6.88;;
68386;SDS011;55338;43.062;25.624;2022-08-30T13:31:25;14.13;;;7.90;;
68386;SDS011;55338;43.062;25.624;2022-08-30T13:33:52;13.73;;;8.20;;
68386;SDS011;55338;43.062;25.624;2022-08-30T13:36:19;19.45;;;7.07;;
68386;SDS011;55338;43.062;25.624;2022-08-30T13:38:46;13.15;;;6.93;;
68386;SDS011;55338;43.062;25.624;2022-08-30T13:41:13;10.07;;;6.70;;
68386;SDS011;55338;43.062;25.624;2022-08-30T13:43:40;13.77;;;7.38;;
68386;SDS011;55338;43.062;25.624;2022-08-30T13:46:05;9.60;;;6.27;;
68386;SDS011;55338;43.062;25.624;2022-08-30T13:48:33;10.10;;;6.38;;
68386;SDS011;55338;43.062;25.624;2022-08-30T13:51:00;11.45;;;6.10;;
68386;SDS011;55338;43.062;25.624;2022-08-30T13:53:25;11.73;;;6.67;;
68386;SDS011;55338;43.062;25.624;2022-08-30T13:55:51;11.97;;;6.87;;
68386;SDS011;55338;43.062;25.624;2022-08-30T13:58:17;8.65;;;7.15;;
68386;SDS011;55338;43.062;25.624;2022-08-30T14:00:43;17.47;;;8.13;;
68386;SDS011;55338;43.062;25.624;2022-08-30T14:03:12;12.07;;;7.63;;
68386;SDS011;55338;43.062;25.624;2022-08-30T14:05:39;13.55;;;6.47;;
68386;SDS011;55338;43.062;25.624;2022-08-30T14:08:06;12.48;;;6.85;;
68386;SDS011;55338;43.062;25.624;2022-08-30T14:10:33;10.43;;;7.28;;
68386;SDS011;55338;43.062;25.624;2022-08-30T14:13:00;13.33;;;6.57;;
68386;SDS011;55338;43.062;25.624;2022-08-30T14:15:26;16.13;;;6.55;;
68386;SDS011;55338;43.062;25.624;2022-08-30T14:17:52;12.63;;;6.28;;
68386;SDS011;55338;43.062;25.624;2022-08-30T14:20:18;16.60;;;6.90;;
68386;SDS011;55338;43.062;25.624;2022-08-30T14:22:44;11.45;;;6.65;;
68386;SDS011;55338;43.062;25.624;2022-08-30T14:25:10;13.77;;;6.97;;
68386;SDS011;55338;43.062;25.624;2022-08-30T14:27:35;12.60;;;6.33;;
68386;SDS011;55338;43.062;25.624;2022-08-30T14:30:02;16.33;;;6.70;;
68386;SDS011;55338;43.062;25.624;2022-08-30T14:32:29;11.82;;;6.75;;
68386;SDS011;55338;43.062;25.624;2022-08-30T14:34:55;12.13;;;6.80;;
68386;SDS011;55338;43.062;25.624;2022-08-30T14:37:20;13.07;;;6.60;;
68386;SDS011;55338;43.062;25.624;2022-08-30T14:39:46;8.60;;;5.82;;
68386;SDS011;55338;43.062;25.624;2022-08-30T14:42:12;12.80;;;6.57;;
68386;SDS011;55338;43.062;25.624;2022-08-30T14:44:38;10.18;;;6.78;;
68386;SDS011;55338;43.062;25.624;2022-08-30T14:47:03;12.23;;;6.27;;
68386;SDS011;55338;43.062;25.624;2022-08-30T14:49:30;14.27;;;7.05;;
68386;SDS011;55338;43.062;25.624;2022-08-30T14:51:56;14.25;;;7.43;;
68386;SDS011;55338;43.062;25.624;2022-08-30T14:54:23;13.48;;;6.10;;
68386;SDS011;55338;43.062;25.624;2022-08-30T14:56:52;11.23;;;6.80;;
68386;SDS011;55338;43.062;25.624;2022-08-30T14:59:19;14.90;;;7.40;;
68386;SDS011;55338;43.062;25.624;2022-08-30T15:01:45;13.88;;;6.68;;
68386;SDS011;55338;43.062;25.624;2022-08-30T15:04:11;14.02;;;6.47;;
68386;SDS011;55338;43.062;25.624;2022-08-30T15:06:39;11.50;;;6.38;;
68386;SDS011;55338;43.062;25.624;2022-08-30T15:09:07;12.15;;;7.50;;
68386;SDS011;55338;43.062;25.624;2022-08-30T15:11:35;13.40;;;7.17;;
68386;SDS011;55338;43.062;25.624;2022-08-30T15:14:02;12.70;;;6.78;;
68386;SDS011;55338;43.062;25.624;2022-08-30T15:16:31;20.25;;;7.70;;
68386;SDS011;55338;43.062;25.624;2022-08-30T15:18:59;11.27;;;6.60;;
68386;SDS011;55338;43.062;25.624;2022-08-30T15:21:29;10.98;;;6.55;;
68386;SDS011;55338;43.062;25.624;2022-08-30T15:23:56;12.10;;;6.40;;
68386;SDS011;55338;43.062;25.624;2022-08-30T15:26:23;12.82;;;7.00;;
68386;SDS011;55338;43.062;25.624;2022-08-30T15:28:49;13.65;;;7.25;;
68386;SDS011;55338;43.062;25.624;2022-08-30T15:31:17;9.05;;;6.93;;
68386;SDS011;55338;43.062;25.624;2022-08-30T15:33:44;9.88;;;6.68;;
68386;SDS011;55338;43.062;25.624;2022-08-30T15:36:10;11.60;;;6.50;;
68386;SDS011;55338;43.062;25.624;2022-08-30T15:38:36;11.73;;;7.07;;
68386;SDS011;55338;43.062;25.624;2022-08-30T15:41:03;14.15;;;6.80;;
68386;SDS011;55338;43.062;25.624;2022-08-30T15:43:31;11.15;;;7.57;;
68386;SDS011;55338;43.062;25.624;2022-08-30T15:46:01;15.60;;;7.68;;
68386;SDS011;55338;43.062;25.624;2022-08-30T15:48:43;14.23;;;6.93;;
68386;SDS011;55338;43.062;25.624;2022-08-30T15:51:10;15.07;;;6.80;;
68386;SDS011;55338;43.062;25.624;2022-08-30T15:53:36;10.60;;;7.22;;
68386;SDS011;55338;43.062;25.624;2022-08-30T15:56:02;16.23;;;8.07;;
68386;SDS011;55338;43.062;25.624;2022-08-30T15:58:28;10.83;;;6.77;;
68386;SDS011;55338;43.062;25.624;2022-08-30T16:00:54;10.20;;;6.47;;
68386;SDS011;55338;43.062;25.624;2022-08-30T16:03:20;13.43;;;6.57;;
68386;SDS011;55338;43.062;25.624;2022-08-30T16:05:45;10.83;;;6.73;;
68386;SDS011;55338;43.062;25.624;2022-08-30T16:08:11;11.52;;;6.35;;